sensor_id;sensor_type;location;lat;lon;timestamp;temperature;humidity
21033;DHT22;10675;47.976;7.824;2023-02-26T00:02:23;3.10;93.50
21033;DHT22;10675;47.976;7.824;2023-02-26T00:04:48;3.20;91.60
21033;DHT22;10675;47.976;7.824;2023-02-26T00:07:14;3.20;91.20
21033;DHT22;10675;47.976;7.824;2023-02-26T00:09:39;3.20;88.80
21033;DHT22;10675;47.976;7.824;2023-02-26T00:12:05;3.20;88.70
21033;DHT22;10675;47.976;7.824;2023-02-26T00:14:31;3.20;91.50
21033;DHT22;10675;47.976;7.824;2023-02-26T00:17:22;3.10;92.50
21033;DHT22;10675;47.976;7.824;2023-02-26T00:19:50;3.10;93.90
21033;DHT22;10675;47.976;7.824;2023-02-26T00:22:16;2.90;94.60
21033;DHT22;10675;47.976;7.824;2023-02-26T00:24:42;2.80;95.10
21033;DHT22;10675;47.976;7.824;2023-02-26T00:27:10;2.50;95.40
21033;DHT22;10675;47.976;7.824;2023-02-26T00:29:36;2.50;95.30
21033;DHT22;10675;47.976;7.824;2023-02-26T00:32:02;2.50;95.10
21033;DHT22;10675;47.976;7.824;2023-02-26T00:34:28;2.50;94.80
21033;DHT22;10675;47.976;7.824;2023-02-26T00:40:03;2.60;93.40
21033;DHT22;10675;47.976;7.824;2023-02-26T00:42:33;2.60;93.00
21033;DHT22;10675;47.976;7.824;2023-02-26T00:44:59;2.50;93.80
21033;DHT22;10675;47.976;7.824;2023-02-26T00:50:17;2.40;92.80
21033;DHT22;10675;47.976;7.824;2023-02-26T00:55:08;2.50;88.90
21033;DHT22;10675;47.976;7.824;2023-02-26T00:57:34;2.60;89.40
21033;DHT22;10675;47.976;7.824;2023-02-26T00:59:59;2.50;89.90
21033;DHT22;10675;47.976;7.824;2023-02-26T01:02:25;2.50;90.80
21033;DHT22;10675;47.976;7.824;2023-02-26T01:04:51;2.40;92.40
21033;DHT22;10675;47.976;7.824;2023-02-26T01:07:21;2.30;93.20
21033;DHT22;10675;47.976;7.824;2023-02-26T01:09:48;2.20;93.60
21033;DHT22;10675;47.976;7.824;2023-02-26T01:12:13;2.20;93.60
21033;DHT22;10675;47.976;7.824;2023-02-26T01:14:42;2.10;93.50
21033;DHT22;10675;47.976;7.824;2023-02-26T01:22:41;2.00;94.10
21033;DHT22;10675;47.976;7.824;2023-02-26T01:25:12;2.00;94.10
21033;DHT22;10675;47.976;7.824;2023-02-26T01:27:39;1.90;94.00
21033;DHT22;10675;47.976;7.824;2023-02-26T01:30:05;1.90;93.90
21033;DHT22;10675;47.976;7.824;2023-02-26T01:32:42;1.80;94.00
21033;DHT22;10675;47.976;7.824;2023-02-26T01:38:09;1.70;94.50
21033;DHT22;10675;47.976;7.824;2023-02-26T01:43:10;1.50;94.90
21033;DHT22;10675;47.976;7.824;2023-02-26T01:45:54;1.50;95.30
21033;DHT22;10675;47.976;7.824;2023-02-26T01:48:35;1.50;95.40
21033;DHT22;10675;47.976;7.824;2023-02-26T01:51:01;1.40;95.80
21033;DHT22;10675;47.976;7.824;2023-02-26T01:53:27;1.30;96.00
21033;DHT22;10675;47.976;7.824;2023-02-26T01:55:59;1.40;96.00
21033;DHT22;10675;47.976;7.824;2023-02-26T01:58:29;1.40;96.00
21033;DHT22;10675;47.976;7.824;2023-02-26T02:00:55;1.30;96.00
21033;DHT22;10675;47.976;7.824;2023-02-26T02:03:23;1.20;96.10
21033;DHT22;10675;47.976;7.824;2023-02-26T02:05:54;1.20;96.10
21033;DHT22;10675;47.976;7.824;2023-02-26T02:08:21;1.30;96.20
21033;DHT22;10675;47.976;7.824;2023-02-26T02:10:47;1.30;95.60
21033;DHT22;10675;47.976;7.824;2023-02-26T02:13:17;1.20;96.00
21033;DHT22;10675;47.976;7.824;2023-02-26T02:16:20;1.20;96.20
21033;DHT22;10675;47.976;7.824;2023-02-26T02:21:49;1.10;95.70
21033;DHT22;10675;47.976;7.824;2023-02-26T02:24:34;1.10;96.10
21033;DHT22;10675;47.976;7.824;2023-02-26T02:27:23;1.10;96.10
21033;DHT22;10675;47.976;7.824;2023-02-26T02:32:38;1.00;95.60
21033;DHT22;10675;47.976;7.824;2023-02-26T02:35:19;1.00;95.40
21033;DHT22;10675;47.976;7.824;2023-02-26T02:37:54;1.00;95.60
21033;DHT22;10675;47.976;7.824;2023-02-26T02:40:25;1.00;95.20
21033;DHT22;10675;47.976;7.824;2023-02-26T02:42:57;1.00;95.10
21033;DHT22;10675;47.976;7.824;2023-02-26T02:45:33;1.00;94.90
21033;DHT22;10675;47.976;7.824;2023-02-26T02:48:11;0.90;94.70
21033;DHT22;10675;47.976;7.824;2023-02-26T02:50:43;0.90;94.90
21033;DHT22;10675;47.976;7.824;2023-02-26T02:53:15;0.90;94.80
21033;DHT22;10675;47.976;7.824;2023-02-26T02:55:55;0.90;94.80
21033;DHT22;10675;47.976;7.824;2023-02-26T02:58:30;0.90;94.70
21033;DHT22;10675;47.976;7.824;2023-02-26T03:01:02;0.90;94.70
21033;DHT22;10675;47.976;7.824;2023-02-26T03:03:34;0.80;95.30
21033;DHT22;10675;47.976;7.824;2023-02-26T03:06:01;0.80;94.80
21033;DHT22;10675;47.976;7.824;2023-02-26T03:08:30;0.80;94.80
21033;DHT22;10675;47.976;7.824;2023-02-26T03:10:58;0.80;94.90
21033;DHT22;10675;47.976;7.824;2023-02-26T03:13:25;0.80;95.60
21033;DHT22;10675;47.976;7.824;2023-02-26T03:21:29;0.80;96.10
21033;DHT22;10675;47.976;7.824;2023-02-26T03:24:13;0.90;96.10
21033;DHT22;10675;47.976;7.824;2023-02-26T03:26:50;0.90;95.60
21033;DHT22;10675;47.976;7.824;2023-02-26T03:29:55;0.90;96.30
21033;DHT22;10675;47.976;7.824;2023-02-26T03:32:31;0.90;96.20
21033;DHT22;10675;47.976;7.824;2023-02-26T03:35:14;0.90;96.50
21033;DHT22;10675;47.976;7.824;2023-02-26T03:37:45;0.90;95.60
21033;DHT22;10675;47.976;7.824;2023-02-26T03:40:24;0.70;95.70
21033;DHT22;10675;47.976;7.824;2023-02-26T03:42:58;0.70;95.80
21033;DHT22;10675;47.976;7.824;2023-02-26T03:45:33;0.70;95.10
21033;DHT22;10675;47.976;7.824;2023-02-26T03:48:01;0.60;95.20
21033;DHT22;10675;47.976;7.824;2023-02-26T03:50:39;0.70;95.30
21033;DHT22;10675;47.976;7.824;2023-02-26T03:53:08;1.00;95.90
21033;DHT22;10675;47.976;7.824;2023-02-26T03:55:39;0.80;95.40
21033;DHT22;10675;47.976;7.824;2023-02-26T03:58:05;0.80;94.80
21033;DHT22;10675;47.976;7.824;2023-02-26T04:00:32;0.70;94.70
21033;DHT22;10675;47.976;7.824;2023-02-26T04:03:08;0.60;94.80
21033;DHT22;10675;47.976;7.824;2023-02-26T04:05:38;0.60;94.80
21033;DHT22;10675;47.976;7.824;2023-02-26T04:08:06;0.60;94.70
21033;DHT22;10675;47.976;7.824;2023-02-26T04:10:37;0.60;94.70
21033;DHT22;10675;47.976;7.824;2023-02-26T04:13:04;0.60;94.60
21033;DHT22;10675;47.976;7.824;2023-02-26T04:15:30;0.60;95.00
21033;DHT22;10675;47.976;7.824;2023-02-26T04:17:55;0.50;94.80
21033;DHT22;10675;47.976;7.824;2023-02-26T04:20:21;0.50;94.90
21033;DHT22;10675;47.976;7.824;2023-02-26T04:22:47;0.40;94.90
21033;DHT22;10675;47.976;7.824;2023-02-26T04:25:12;0.40;94.90
21033;DHT22;10675;47.976;7.824;2023-02-26T04:27:38;0.40;95.00
21033;DHT22;10675;47.976;7.824;2023-02-26T04:30:04;0.40;95.00
21033;DHT22;10675;47.976;7.824;2023-02-26T04:32:29;0.30;95.20
21033;DHT22;10675;47.976;7.824;2023-02-26T04:34:55;0.30;95.20
21033;DHT22;10675;47.976;7.824;2023-02-26T04:37:20;0.30;95.30
21033;DHT22;10675;47.976;7.824;2023-02-26T04:39:46;0.20;95.40
21033;DHT22;10675;47.976;7.824;2023-02-26T04:42:11;0.20;95.50
21033;DHT22;10675;47.976;7.824;2023-02-26T04:44:37;0.20;95.40
21033;DHT22;10675;47.976;7.824;2023-02-26T04:47:02;0.10;95.40
21033;DHT22;10675;47.976;7.824;2023-02-26T04:49:28;0.10;95.50
21033;DHT22;10675;47.976;7.824;2023-02-26T04:51:53;0.10;95.70
21033;DHT22;10675;47.976;7.824;2023-02-26T04:54:19;0.20;95.60
21033;DHT22;10675;47.976;7.824;2023-02-26T04:56:44;0.20;95.40
21033;DHT22;10675;47.976;7.824;2023-02-26T04:59:10;0.20;95.50
21033;DHT22;10675;47.976;7.824;2023-02-26T05:01:35;0.20;95.20
21033;DHT22;10675;47.976;7.824;2023-02-26T05:04:01;0.30;95.20
21033;DHT22;10675;47.976;7.824;2023-02-26T05:06:26;0.30;94.80
21033;DHT22;10675;47.976;7.824;2023-02-26T05:08:52;0.40;94.60
21033;DHT22;10675;47.976;7.824;2023-02-26T05:11:18;0.40;94.80
21033;DHT22;10675;47.976;7.824;2023-02-26T05:13:44;0.40;94.30
21033;DHT22;10675;47.976;7.824;2023-02-26T05:16:09;0.40;93.60
21033;DHT22;10675;47.976;7.824;2023-02-26T05:18:35;0.50;93.80
21033;DHT22;10675;47.976;7.824;2023-02-26T05:21:01;0.50;94.50
21033;DHT22;10675;47.976;7.824;2023-02-26T05:23:26;0.50;93.50
21033;DHT22;10675;47.976;7.824;2023-02-26T05:25:56;0.40;93.50
21033;DHT22;10675;47.976;7.824;2023-02-26T05:28:23;0.50;93.50
21033;DHT22;10675;47.976;7.824;2023-02-26T05:30:48;0.40;93.40
21033;DHT22;10675;47.976;7.824;2023-02-26T05:33:14;0.40;93.40
21033;DHT22;10675;47.976;7.824;2023-02-26T05:35:39;0.40;93.70
21033;DHT22;10675;47.976;7.824;2023-02-26T05:38:05;0.40;93.70
21033;DHT22;10675;47.976;7.824;2023-02-26T05:40:31;0.40;93.90
21033;DHT22;10675;47.976;7.824;2023-02-26T05:42:56;0.30;93.80
21033;DHT22;10675;47.976;7.824;2023-02-26T05:45:22;0.40;93.40
21033;DHT22;10675;47.976;7.824;2023-02-26T05:47:47;0.30;93.30
21033;DHT22;10675;47.976;7.824;2023-02-26T05:50:13;0.30;93.50
21033;DHT22;10675;47.976;7.824;2023-02-26T05:52:38;0.30;93.60
21033;DHT22;10675;47.976;7.824;2023-02-26T05:55:04;0.30;92.70
21033;DHT22;10675;47.976;7.824;2023-02-26T05:57:30;0.20;92.60
21033;DHT22;10675;47.976;7.824;2023-02-26T05:59:55;0.20;93.00
21033;DHT22;10675;47.976;7.824;2023-02-26T06:02:21;0.10;93.10
21033;DHT22;10675;47.976;7.824;2023-02-26T06:04:47;-0.10;93.90
21033;DHT22;10675;47.976;7.824;2023-02-26T06:07:13;-0.10;94.30
21033;DHT22;10675;47.976;7.824;2023-02-26T06:09:38;-0.20;94.40
21033;DHT22;10675;47.976;7.824;2023-02-26T06:12:04;-0.10;94.80
21033;DHT22;10675;47.976;7.824;2023-02-26T06:14:31;-0.10;94.50
21033;DHT22;10675;47.976;7.824;2023-02-26T06:16:57;-0.10;94.20
21033;DHT22;10675;47.976;7.824;2023-02-26T06:19:23;-0.10;94.30
21033;DHT22;10675;47.976;7.824;2023-02-26T06:21:48;-0.10;94.50
21033;DHT22;10675;47.976;7.824;2023-02-26T06:24:14;0.00;94.40
21033;DHT22;10675;47.976;7.824;2023-02-26T06:26:39;0.30;94.40
21033;DHT22;10675;47.976;7.824;2023-02-26T06:29:05;-0.10;94.60
21033;DHT22;10675;47.976;7.824;2023-02-26T06:31:30;0.00;94.40
21033;DHT22;10675;47.976;7.824;2023-02-26T06:33:56;-0.10;94.10
21033;DHT22;10675;47.976;7.824;2023-02-26T06:36:21;0.00;93.30
21033;DHT22;10675;47.976;7.824;2023-02-26T06:38:47;0.10;91.70
21033;DHT22;10675;47.976;7.824;2023-02-26T06:41:13;0.20;90.10
21033;DHT22;10675;47.976;7.824;2023-02-26T06:43:38;0.20;90.20
21033;DHT22;10675;47.976;7.824;2023-02-26T06:46:04;0.30;90.60
21033;DHT22;10675;47.976;7.824;2023-02-26T06:48:30;0.30;90.20
21033;DHT22;10675;47.976;7.824;2023-02-26T06:50:55;0.30;90.00
21033;DHT22;10675;47.976;7.824;2023-02-26T06:53:21;0.30;89.00
21033;DHT22;10675;47.976;7.824;2023-02-26T06:55:50;0.40;88.90
21033;DHT22;10675;47.976;7.824;2023-02-26T06:58:15;0.50;88.80
21033;DHT22;10675;47.976;7.824;2023-02-26T07:00:41;0.50;89.30
21033;DHT22;10675;47.976;7.824;2023-02-26T07:03:10;0.50;88.80
21033;DHT22;10675;47.976;7.824;2023-02-26T07:05:36;0.60;88.70
21033;DHT22;10675;47.976;7.824;2023-02-26T07:08:02;0.70;90.00
21033;DHT22;10675;47.976;7.824;2023-02-26T07:10:31;0.70;89.60
21033;DHT22;10675;47.976;7.824;2023-02-26T07:12:56;0.70;89.40
21033;DHT22;10675;47.976;7.824;2023-02-26T07:15:22;0.80;88.80
21033;DHT22;10675;47.976;7.824;2023-02-26T07:17:47;0.90;88.50
21033;DHT22;10675;47.976;7.824;2023-02-26T07:20:13;1.00;88.60
21033;DHT22;10675;47.976;7.824;2023-02-26T07:22:39;0.90;87.40
21033;DHT22;10675;47.976;7.824;2023-02-26T07:25:05;1.00;88.50
21033;DHT22;10675;47.976;7.824;2023-02-26T07:27:32;1.00;88.40
21033;DHT22;10675;47.976;7.824;2023-02-26T07:29:58;1.10;88.70
21033;DHT22;10675;47.976;7.824;2023-02-26T07:32:24;1.00;89.60
21033;DHT22;10675;47.976;7.824;2023-02-26T07:34:50;1.10;90.30
21033;DHT22;10675;47.976;7.824;2023-02-26T07:37:16;1.20;90.00
21033;DHT22;10675;47.976;7.824;2023-02-26T07:39:41;1.40;89.80
21033;DHT22;10675;47.976;7.824;2023-02-26T07:42:07;1.20;89.80
21033;DHT22;10675;47.976;7.824;2023-02-26T07:44:33;1.30;90.10
21033;DHT22;10675;47.976;7.824;2023-02-26T07:46:59;1.30;90.50
21033;DHT22;10675;47.976;7.824;2023-02-26T07:49:25;1.30;89.60
21033;DHT22;10675;47.976;7.824;2023-02-26T07:51:50;1.20;88.80
21033;DHT22;10675;47.976;7.824;2023-02-26T07:54:16;1.30;89.00
21033;DHT22;10675;47.976;7.824;2023-02-26T07:56:41;1.30;89.30
21033;DHT22;10675;47.976;7.824;2023-02-26T07:59:08;1.20;89.20
21033;DHT22;10675;47.976;7.824;2023-02-26T08:01:34;1.30;89.90
21033;DHT22;10675;47.976;7.824;2023-02-26T08:04:00;1.30;90.30
21033;DHT22;10675;47.976;7.824;2023-02-26T08:06:26;1.30;89.20
21033;DHT22;10675;47.976;7.824;2023-02-26T08:08:51;1.30;90.00
21033;DHT22;10675;47.976;7.824;2023-02-26T08:11:17;1.50;91.00
21033;DHT22;10675;47.976;7.824;2023-02-26T08:13:42;1.50;90.80
21033;DHT22;10675;47.976;7.824;2023-02-26T08:16:08;1.30;90.10
21033;DHT22;10675;47.976;7.824;2023-02-26T08:18:33;1.30;90.50
21033;DHT22;10675;47.976;7.824;2023-02-26T08:20:59;1.30;90.60
21033;DHT22;10675;47.976;7.824;2023-02-26T08:23:24;1.30;90.50
21033;DHT22;10675;47.976;7.824;2023-02-26T08:25:58;1.30;90.30
21033;DHT22;10675;47.976;7.824;2023-02-26T08:28:23;1.40;90.40
21033;DHT22;10675;47.976;7.824;2023-02-26T08:30:52;1.40;90.10
21033;DHT22;10675;47.976;7.824;2023-02-26T08:33:17;1.40;90.20
21033;DHT22;10675;47.976;7.824;2023-02-26T08:35:43;1.60;89.60
21033;DHT22;10675;47.976;7.824;2023-02-26T08:38:09;1.70;88.00
21033;DHT22;10675;47.976;7.824;2023-02-26T08:40:35;1.70;86.80
21033;DHT22;10675;47.976;7.824;2023-02-26T08:43:00;1.80;87.50
21033;DHT22;10675;47.976;7.824;2023-02-26T08:45:28;1.80;87.40
21033;DHT22;10675;47.976;7.824;2023-02-26T08:47:54;1.70;87.20
21033;DHT22;10675;47.976;7.824;2023-02-26T08:50:20;1.80;88.50
21033;DHT22;10675;47.976;7.824;2023-02-26T08:52:46;1.90;87.70
21033;DHT22;10675;47.976;7.824;2023-02-26T08:55:11;2.00;88.70
21033;DHT22;10675;47.976;7.824;2023-02-26T08:57:37;2.10;90.00
21033;DHT22;10675;47.976;7.824;2023-02-26T09:00:04;2.20;87.80
21033;DHT22;10675;47.976;7.824;2023-02-26T09:02:30;2.00;86.70
21033;DHT22;10675;47.976;7.824;2023-02-26T09:04:55;2.10;87.40
21033;DHT22;10675;47.976;7.824;2023-02-26T09:07:21;2.20;86.70
21033;DHT22;10675;47.976;7.824;2023-02-26T09:09:46;2.10;85.90
21033;DHT22;10675;47.976;7.824;2023-02-26T09:12:12;1.80;85.60
21033;DHT22;10675;47.976;7.824;2023-02-26T09:14:37;1.80;87.40
21033;DHT22;10675;47.976;7.824;2023-02-26T09:17:03;1.60;86.50
21033;DHT22;10675;47.976;7.824;2023-02-26T09:19:29;1.60;83.60
21033;DHT22;10675;47.976;7.824;2023-02-26T09:21:54;1.80;82.70
21033;DHT22;10675;47.976;7.824;2023-02-26T09:24:20;2.00;81.00
21033;DHT22;10675;47.976;7.824;2023-02-26T09:26:45;2.30;80.10
21033;DHT22;10675;47.976;7.824;2023-02-26T09:29:11;2.70;78.20
21033;DHT22;10675;47.976;7.824;2023-02-26T09:31:38;2.90;74.60
21033;DHT22;10675;47.976;7.824;2023-02-26T09:34:04;2.90;74.20
21033;DHT22;10675;47.976;7.824;2023-02-26T09:36:30;3.00;73.70
21033;DHT22;10675;47.976;7.824;2023-02-26T09:38:56;3.10;73.90
21033;DHT22;10675;47.976;7.824;2023-02-26T09:41:28;3.10;72.40
21033;DHT22;10675;47.976;7.824;2023-02-26T09:46:52;3.40;71.50
21033;DHT22;10675;47.976;7.824;2023-02-26T09:54:48;3.50;68.00
21033;DHT22;10675;47.976;7.824;2023-02-26T09:57:40;3.60;67.10
21033;DHT22;10675;47.976;7.824;2023-02-26T10:03:31;3.80;68.30
21033;DHT22;10675;47.976;7.824;2023-02-26T10:12:03;3.20;70.50
21033;DHT22;10675;47.976;7.824;2023-02-26T10:14:48;3.20;71.10
21033;DHT22;10675;47.976;7.824;2023-02-26T10:20:53;3.20;70.10
21033;DHT22;10675;47.976;7.824;2023-02-26T10:23:40;3.10;71.40
21033;DHT22;10675;47.976;7.824;2023-02-26T10:26:18;3.00;72.20
21033;DHT22;10675;47.976;7.824;2023-02-26T10:31:34;2.90;72.00
21033;DHT22;10675;47.976;7.824;2023-02-26T10:34:24;2.80;73.10
21033;DHT22;10675;47.976;7.824;2023-02-26T10:37:03;2.70;73.70
21033;DHT22;10675;47.976;7.824;2023-02-26T10:42:37;3.00;76.10
21033;DHT22;10675;47.976;7.824;2023-02-26T10:51:00;2.80;76.60
21033;DHT22;10675;47.976;7.824;2023-02-26T10:53:33;2.80;76.50
21033;DHT22;10675;47.976;7.824;2023-02-26T10:56:32;2.70;77.60
21033;DHT22;10675;47.976;7.824;2023-02-26T10:58:58;2.70;79.40
21033;DHT22;10675;47.976;7.824;2023-02-26T11:01:27;3.00;79.30
21033;DHT22;10675;47.976;7.824;2023-02-26T11:04:00;3.50;78.30
21033;DHT22;10675;47.976;7.824;2023-02-26T11:06:43;3.90;77.70
21033;DHT22;10675;47.976;7.824;2023-02-26T11:12:05;4.60;76.40
21033;DHT22;10675;47.976;7.824;2023-02-26T11:14:32;4.80;75.80
21033;DHT22;10675;47.976;7.824;2023-02-26T11:17:01;5.20;73.50
21033;DHT22;10675;47.976;7.824;2023-02-26T11:19:32;5.70;73.50
21033;DHT22;10675;47.976;7.824;2023-02-26T11:22:01;5.70;71.20
21033;DHT22;10675;47.976;7.824;2023-02-26T11:24:30;4.90;71.20
21033;DHT22;10675;47.976;7.824;2023-02-26T11:26:59;4.50;74.40
21033;DHT22;10675;47.976;7.824;2023-02-26T11:29:46;4.40;75.30
21033;DHT22;10675;47.976;7.824;2023-02-26T11:32:22;4.10;76.80
21033;DHT22;10675;47.976;7.824;2023-02-26T11:34:50;3.80;80.80
21033;DHT22;10675;47.976;7.824;2023-02-26T11:37:22;3.80;81.20
21033;DHT22;10675;47.976;7.824;2023-02-26T11:40:02;4.10;82.40
21033;DHT22;10675;47.976;7.824;2023-02-26T11:42:34;3.80;79.20
21033;DHT22;10675;47.976;7.824;2023-02-26T11:45:01;3.60;82.40
21033;DHT22;10675;47.976;7.824;2023-02-26T11:47:30;3.70;83.50
21033;DHT22;10675;47.976;7.824;2023-02-26T11:50:01;3.60;84.00
21033;DHT22;10675;47.976;7.824;2023-02-26T11:52:56;3.90;81.90
21033;DHT22;10675;47.976;7.824;2023-02-26T11:55:32;4.30;80.30
21033;DHT22;10675;47.976;7.824;2023-02-26T11:57:58;4.40;78.30
21033;DHT22;10675;47.976;7.824;2023-02-26T12:00:30;4.40;75.80
21033;DHT22;10675;47.976;7.824;2023-02-26T12:03:04;4.10;75.30
21033;DHT22;10675;47.976;7.824;2023-02-26T12:05:32;3.90;73.30
21033;DHT22;10675;47.976;7.824;2023-02-26T12:07:58;3.70;73.30
21033;DHT22;10675;47.976;7.824;2023-02-26T12:10:42;3.70;72.70
21033;DHT22;10675;47.976;7.824;2023-02-26T12:13:19;3.70;70.50
21033;DHT22;10675;47.976;7.824;2023-02-26T12:15:57;3.80;68.20
21033;DHT22;10675;47.976;7.824;2023-02-26T12:18:48;3.70;66.40
21033;DHT22;10675;47.976;7.824;2023-02-26T12:24:34;3.90;69.20
21033;DHT22;10675;47.976;7.824;2023-02-26T12:27:32;3.80;67.60
21033;DHT22;10675;47.976;7.824;2023-02-26T12:36:37;4.20;71.40
21033;DHT22;10675;47.976;7.824;2023-02-26T12:41:55;4.40;72.70
21033;DHT22;10675;47.976;7.824;2023-02-26T12:47:22;4.60;73.20
21033;DHT22;10675;47.976;7.824;2023-02-26T12:50:19;4.30;70.70
21033;DHT22;10675;47.976;7.824;2023-02-26T12:53:11;4.20;77.00
21033;DHT22;10675;47.976;7.824;2023-02-26T13:11:59;3.60;75.10
21033;DHT22;10675;47.976;7.824;2023-02-26T13:14:32;3.50;77.20
21033;DHT22;10675;47.976;7.824;2023-02-26T13:18:01;3.60;75.70
21033;DHT22;10675;47.976;7.824;2023-02-26T13:19:58;3.70;76.80
21033;DHT22;10675;47.976;7.824;2023-02-26T13:22:33;3.80;75.80
21033;DHT22;10675;47.976;7.824;2023-02-26T13:25:05;3.40;75.80
21033;DHT22;10675;47.976;7.824;2023-02-26T13:27:37;3.60;76.60
21033;DHT22;10675;47.976;7.824;2023-02-26T13:30:26;3.60;77.20
21033;DHT22;10675;47.976;7.824;2023-02-26T13:32:56;3.40;76.60
21033;DHT22;10675;47.976;7.824;2023-02-26T13:35:39;3.30;78.10
21033;DHT22;10675;47.976;7.824;2023-02-26T13:38:25;3.30;79.30
21033;DHT22;10675;47.976;7.824;2023-02-26T13:43:24;3.30;81.40
21033;DHT22;10675;47.976;7.824;2023-02-26T13:46:24;3.40;81.50
21033;DHT22;10675;47.976;7.824;2023-02-26T13:51:43;2.90;80.60
21033;DHT22;10675;47.976;7.824;2023-02-26T13:56:53;3.00;80.50
21033;DHT22;10675;47.976;7.824;2023-02-26T13:59:47;3.00;80.40
21033;DHT22;10675;47.976;7.824;2023-02-26T14:04:51;3.40;79.00
21033;DHT22;10675;47.976;7.824;2023-02-26T14:10:27;3.50;78.70
21033;DHT22;10675;47.976;7.824;2023-02-26T14:13:09;3.80;79.10
21033;DHT22;10675;47.976;7.824;2023-02-26T14:18:49;3.70;77.00
21033;DHT22;10675;47.976;7.824;2023-02-26T14:21:35;3.40;78.20
21033;DHT22;10675;47.976;7.824;2023-02-26T14:24:18;3.40;78.60
21033;DHT22;10675;47.976;7.824;2023-02-26T14:26:49;3.40;79.00
21033;DHT22;10675;47.976;7.824;2023-02-26T14:34:51;3.00;83.70
21033;DHT22;10675;47.976;7.824;2023-02-26T14:37:23;2.70;86.60
21033;DHT22;10675;47.976;7.824;2023-02-26T14:42:50;2.60;90.80
21033;DHT22;10675;47.976;7.824;2023-02-26T14:45:21;2.40;91.70
21033;DHT22;10675;47.976;7.824;2023-02-26T14:47:48;2.60;91.60
21033;DHT22;10675;47.976;7.824;2023-02-26T14:50:17;2.80;91.50
21033;DHT22;10675;47.976;7.824;2023-02-26T15:00:51;2.50;91.40
21033;DHT22;10675;47.976;7.824;2023-02-26T15:06:41;2.60;91.00
21033;DHT22;10675;47.976;7.824;2023-02-26T15:09:20;2.70;91.30
21033;DHT22;10675;47.976;7.824;2023-02-26T15:17:32;3.20;89.70
21033;DHT22;10675;47.976;7.824;2023-02-26T15:23:14;3.30;89.60
21033;DHT22;10675;47.976;7.824;2023-02-26T15:25:43;3.20;89.40
21033;DHT22;10675;47.976;7.824;2023-02-26T15:28:22;3.20;89.00
21033;DHT22;10675;47.976;7.824;2023-02-26T15:30:50;3.10;89.00
21033;DHT22;10675;47.976;7.824;2023-02-26T15:33:17;3.10;89.50
21033;DHT22;10675;47.976;7.824;2023-02-26T15:35:47;3.10;90.00
21033;DHT22;10675;47.976;7.824;2023-02-26T15:38:12;3.30;90.10
21033;DHT22;10675;47.976;7.824;2023-02-26T15:40:38;3.20;90.70
21033;DHT22;10675;47.976;7.824;2023-02-26T15:43:05;3.20;91.50
21033;DHT22;10675;47.976;7.824;2023-02-26T15:45:46;2.90;92.90
21033;DHT22;10675;47.976;7.824;2023-02-26T15:48:23;2.70;94.20
21033;DHT22;10675;47.976;7.824;2023-02-26T15:50:58;2.50;94.80
21033;DHT22;10675;47.976;7.824;2023-02-26T15:53:45;2.50;94.40
21033;DHT22;10675;47.976;7.824;2023-02-26T15:56:33;2.70;93.90
21033;DHT22;10675;47.976;7.824;2023-02-26T15:59:36;2.80;92.60
21033;DHT22;10675;47.976;7.824;2023-02-26T16:01:54;2.80;92.10
21033;DHT22;10675;47.976;7.824;2023-02-26T16:04:21;2.90;91.90
21033;DHT22;10675;47.976;7.824;2023-02-26T16:06:49;2.90;92.00
21033;DHT22;10675;47.976;7.824;2023-02-26T16:09:26;2.80;91.80
21033;DHT22;10675;47.976;7.824;2023-02-26T16:11:57;2.50;93.30
21033;DHT22;10675;47.976;7.824;2023-02-26T16:14:33;2.30;94.40
21033;DHT22;10675;47.976;7.824;2023-02-26T16:17:03;2.30;94.90
21033;DHT22;10675;47.976;7.824;2023-02-26T16:19:41;2.00;95.60
21033;DHT22;10675;47.976;7.824;2023-02-26T16:22:44;2.40;95.30
21033;DHT22;10675;47.976;7.824;2023-02-26T16:25:49;2.20;95.20
21033;DHT22;10675;47.976;7.824;2023-02-26T16:28:23;2.20;94.60
21033;DHT22;10675;47.976;7.824;2023-02-26T16:30:53;2.20;94.00
21033;DHT22;10675;47.976;7.824;2023-02-26T16:33:23;2.30;93.80
21033;DHT22;10675;47.976;7.824;2023-02-26T16:36:01;2.40;93.60
21033;DHT22;10675;47.976;7.824;2023-02-26T16:39:20;2.40;92.80
21033;DHT22;10675;47.976;7.824;2023-02-26T16:41:21;2.40;91.90
21033;DHT22;10675;47.976;7.824;2023-02-26T16:43:51;2.30;91.40
21033;DHT22;10675;47.976;7.824;2023-02-26T16:49:05;2.40;90.50
21033;DHT22;10675;47.976;7.824;2023-02-26T16:51:34;2.40;90.10
21033;DHT22;10675;47.976;7.824;2023-02-26T16:54:05;2.50;90.30
21033;DHT22;10675;47.976;7.824;2023-02-26T16:56:40;2.60;89.60
21033;DHT22;10675;47.976;7.824;2023-02-26T16:59:20;2.60;87.60
21033;DHT22;10675;47.976;7.824;2023-02-26T17:02:11;2.60;87.40
21033;DHT22;10675;47.976;7.824;2023-02-26T17:04:38;2.60;87.90
21033;DHT22;10675;47.976;7.824;2023-02-26T17:07:34;2.60;89.70
21033;DHT22;10675;47.976;7.824;2023-02-26T17:10:23;2.60;88.00
21033;DHT22;10675;47.976;7.824;2023-02-26T17:12:51;2.50;88.00
21033;DHT22;10675;47.976;7.824;2023-02-26T17:15:20;2.50;87.90
21033;DHT22;10675;47.976;7.824;2023-02-26T17:17:51;2.50;84.60
21033;DHT22;10675;47.976;7.824;2023-02-26T17:20:21;2.50;84.70
21033;DHT22;10675;47.976;7.824;2023-02-26T17:22:47;2.50;85.00
21033;DHT22;10675;47.976;7.824;2023-02-26T17:25:15;2.50;84.60
21033;DHT22;10675;47.976;7.824;2023-02-26T17:27:41;2.50;84.30
21033;DHT22;10675;47.976;7.824;2023-02-26T17:30:08;2.50;83.90
21033;DHT22;10675;47.976;7.824;2023-02-26T17:32:36;2.50;84.60
21033;DHT22;10675;47.976;7.824;2023-02-26T17:35:01;2.40;85.00
21033;DHT22;10675;47.976;7.824;2023-02-26T17:37:32;2.40;83.70
21033;DHT22;10675;47.976;7.824;2023-02-26T17:39:59;2.50;83.90
21033;DHT22;10675;47.976;7.824;2023-02-26T17:42:24;2.50;83.90
21033;DHT22;10675;47.976;7.824;2023-02-26T17:44:50;2.50;83.80
21033;DHT22;10675;47.976;7.824;2023-02-26T17:47:21;2.50;84.40
21033;DHT22;10675;47.976;7.824;2023-02-26T17:49:47;2.50;85.70
21033;DHT22;10675;47.976;7.824;2023-02-26T17:52:13;2.30;89.50
21033;DHT22;10675;47.976;7.824;2023-02-26T17:54:39;2.10;91.10
21033;DHT22;10675;47.976;7.824;2023-02-26T17:57:06;2.10;92.10
21033;DHT22;10675;47.976;7.824;2023-02-26T17:59:32;2.00;92.10
21033;DHT22;10675;47.976;7.824;2023-02-26T18:01:58;2.10;91.00
21033;DHT22;10675;47.976;7.824;2023-02-26T18:04:24;2.20;90.80
21033;DHT22;10675;47.976;7.824;2023-02-26T18:06:49;2.10;90.70
21033;DHT22;10675;47.976;7.824;2023-02-26T18:09:15;2.10;91.00
21033;DHT22;10675;47.976;7.824;2023-02-26T18:11:41;2.20;90.50
21033;DHT22;10675;47.976;7.824;2023-02-26T18:14:08;2.20;90.70
21033;DHT22;10675;47.976;7.824;2023-02-26T18:16:39;2.30;90.20
21033;DHT22;10675;47.976;7.824;2023-02-26T18:19:06;2.30;89.40
21033;DHT22;10675;47.976;7.824;2023-02-26T18:21:32;2.30;88.40
21033;DHT22;10675;47.976;7.824;2023-02-26T18:23:59;2.30;88.10
21033;DHT22;10675;47.976;7.824;2023-02-26T18:26:29;2.30;88.50
21033;DHT22;10675;47.976;7.824;2023-02-26T18:28:56;2.30;87.60
21033;DHT22;10675;47.976;7.824;2023-02-26T18:31:23;2.30;86.50
21033;DHT22;10675;47.976;7.824;2023-02-26T18:33:49;2.30;84.70